sensor_id;sensor_type;location;lat;lon;timestamp;pressure;altitude;pressure_sealevel;temperature;humidity
9893;BME280;4985;49.092;8.542;2022-07-18T00:01:47;100063.22;;;22.02;41.11
9893;BME280;4985;49.092;8.542;2022-07-18T00:04:14;100058.78;;;21.90;41.44
9893;BME280;4985;49.092;8.542;2022-07-18T00:06:42;100063.91;;;21.91;41.38
9893;BME280;4985;49.092;8.542;2022-07-18T00:09:08;100057.25;;;22.00;41.18
9893;BME280;4985;49.092;8.542;2022-07-18T00:11:35;100066.88;;;22.08;40.92
9893;BME280;4985;49.092;8.542;2022-07-18T00:14:02;100063.38;;;22.07;40.68
9893;BME280;4985;49.092;8.542;2022-07-18T00:16:29;100056.81;;;22.03;40.67
9893;BME280;4985;49.092;8.542;2022-07-18T00:18:55;100068.09;;;21.87;40.95
9893;BME280;4985;49.092;8.542;2022-07-18T00:21:23;100059.38;;;21.92;40.81
9893;BME280;4985;49.092;8.542;2022-07-18T00:23:51;100062.88;;;21.92;40.69
9893;BME280;4985;49.092;8.542;2022-07-18T00:26:18;100060.91;;;21.81;40.95
9893;BME280;4985;49.092;8.542;2022-07-18T00:28:45;100055.97;;;21.78;40.97
9893;BME280;4985;49.092;8.542;2022-07-18T00:31:11;100059.97;;;21.69;41.13
9893;BME280;4985;49.092;8.542;2022-07-18T00:33:38;100058.75;;;21.65;41.28
9893;BME280;4985;49.092;8.542;2022-07-18T00:36:05;100055.62;;;21.68;41.27
9893;BME280;4985;49.092;8.542;2022-07-18T00:38:32;100052.16;;;21.61;41.44
9893;BME280;4985;49.092;8.542;2022-07-18T00:41:00;100047.59;;;21.68;41.27
9893;BME280;4985;49.092;8.542;2022-07-18T00:43:27;100044.03;;;21.74;41.09
9893;BME280;4985;49.092;8.542;2022-07-18T00:45:53;100050.28;;;21.68;41.15
9893;BME280;4985;49.092;8.542;2022-07-18T00:48:20;100048.62;;;21.67;41.26
9893;BME280;4985;49.092;8.542;2022-07-18T00:50:48;100052.28;;;21.72;41.03
9893;BME280;4985;49.092;8.542;2022-07-18T00:53:15;100050.78;;;21.51;41.38
9893;BME280;4985;49.092;8.542;2022-07-18T00:55:43;100055.97;;;21.46;41.54
9893;BME280;4985;49.092;8.542;2022-07-18T00:58:13;100050.84;;;21.45;41.56
9893;BME280;4985;49.092;8.542;2022-07-18T01:00:40;100055.38;;;21.44;41.57
9893;BME280;4985;49.092;8.542;2022-07-18T01:03:24;100055.62;;;21.36;41.75
9893;BME280;4985;49.092;8.542;2022-07-18T01:05:51;100050.63;;;21.46;41.39
9893;BME280;4985;49.092;8.542;2022-07-18T01:08:17;100054.78;;;21.42;41.42
9893;BME280;4985;49.092;8.542;2022-07-18T01:10:44;100061.41;;;21.33;41.60
9893;BME280;4985;49.092;8.542;2022-07-18T01:13:12;100053.75;;;21.37;41.49
9893;BME280;4985;49.092;8.542;2022-07-18T01:15:39;100056.88;;;21.34;41.53
9893;BME280;4985;49.092;8.542;2022-07-18T01:18:06;100051.31;;;21.29;41.65
9893;BME280;4985;49.092;8.542;2022-07-18T01:20:34;100052.38;;;21.28;41.63
9893;BME280;4985;49.092;8.542;2022-07-18T01:23:01;100055.44;;;21.25;41.64
9893;BME280;4985;49.092;8.542;2022-07-18T01:25:27;100056.69;;;21.22;41.70
9893;BME280;4985;49.092;8.542;2022-07-18T01:27:54;100053.00;;;21.23;41.66
9893;BME280;4985;49.092;8.542;2022-07-18T01:30:22;100049.72;;;21.21;41.70
9893;BME280;4985;49.092;8.542;2022-07-18T01:32:56;100043.50;;;21.27;41.61
9893;BME280;4985;49.092;8.542;2022-07-18T01:35:23;100049.47;;;21.29;41.62
9893;BME280;4985;49.092;8.542;2022-07-18T01:37:51;100050.75;;;21.20;41.77
9893;BME280;4985;49.092;8.542;2022-07-18T01:40:18;100046.84;;;21.16;41.79
9893;BME280;4985;49.092;8.542;2022-07-18T01:42:45;100047.84;;;21.21;41.74
9893;BME280;4985;49.092;8.542;2022-07-18T01:45:12;100043.50;;;21.27;41.37
9893;BME280;4985;49.092;8.542;2022-07-18T01:47:39;100054.03;;;21.22;41.47
9893;BME280;4985;49.092;8.542;2022-07-18T01:50:06;100053.00;;;21.16;41.47
9893;BME280;4985;49.092;8.542;2022-07-18T01:52:33;100048.53;;;21.10;41.64
9893;BME280;4985;49.092;8.542;2022-07-18T01:55:02;100047.34;;;21.00;41.74
9893;BME280;4985;49.092;8.542;2022-07-18T01:57:29;100043.22;;;20.97;41.73
9893;BME280;4985;49.092;8.542;2022-07-18T01:59:55;100053.50;;;21.00;41.69
9893;BME280;4985;49.092;8.542;2022-07-18T02:02:22;100054.16;;;20.96;41.81
9893;BME280;4985;49.092;8.542;2022-07-18T02:04:49;100051.88;;;20.99;41.84
9893;BME280;4985;49.092;8.542;2022-07-18T02:07:32;100049.34;;;21.11;41.60
9893;BME280;4985;49.092;8.542;2022-07-18T02:10:00;100048.53;;;21.04;41.70
9893;BME280;4985;49.092;8.542;2022-07-18T02:12:28;100045.91;;;20.97;41.87
9893;BME280;4985;49.092;8.542;2022-07-18T02:14:54;100044.25;;;20.96;41.93
9893;BME280;4985;49.092;8.542;2022-07-18T02:17:21;100044.88;;;20.98;41.85
9893;BME280;4985;49.092;8.542;2022-07-18T02:19:48;100050.87;;;20.87;42.19
9893;BME280;4985;49.092;8.542;2022-07-18T02:22:14;100048.38;;;20.92;42.06
9893;BME280;4985;49.092;8.542;2022-07-18T02:24:41;100051.72;;;20.87;41.97
9893;BME280;4985;49.092;8.542;2022-07-18T02:27:08;100047.41;;;20.80;42.08
9893;BME280;4985;49.092;8.542;2022-07-18T02:29:36;100043.75;;;20.61;42.43
9893;BME280;4985;49.092;8.542;2022-07-18T02:32:04;100040.41;;;20.72;42.28
9893;BME280;4985;49.092;8.542;2022-07-18T02:34:31;100038.81;;;20.64;42.38
9893;BME280;4985;49.092;8.542;2022-07-18T02:36:58;100043.75;;;20.61;42.54
9893;BME280;4985;49.092;8.542;2022-07-18T02:39:25;100049.09;;;20.61;42.63
9893;BME280;4985;49.092;8.542;2022-07-18T02:41:51;100048.09;;;20.62;42.50
9893;BME280;4985;49.092;8.542;2022-07-18T02:44:18;100047.25;;;20.61;42.46
9893;BME280;4985;49.092;8.542;2022-07-18T02:46:46;100047.44;;;20.60;42.41
9893;BME280;4985;49.092;8.542;2022-07-18T02:49:13;100045.59;;;20.60;42.23
9893;BME280;4985;49.092;8.542;2022-07-18T02:51:52;100043.56;;;20.62;42.17
9893;BME280;4985;49.092;8.542;2022-07-18T02:54:20;100043.34;;;20.57;42.19
9893;BME280;4985;49.092;8.542;2022-07-18T02:56:47;100046.06;;;20.51;42.43
9893;BME280;4985;49.092;8.542;2022-07-18T02:59:13;100045.03;;;20.45;42.70
9893;BME280;4985;49.092;8.542;2022-07-18T03:01:40;100052.00;;;20.46;42.70
9893;BME280;4985;49.092;8.542;2022-07-18T03:04:08;100056.53;;;20.39;42.78
9893;BME280;4985;49.092;8.542;2022-07-18T03:06:35;100061.06;;;20.39;42.76
9893;BME280;4985;49.092;8.542;2022-07-18T03:09:02;100055.06;;;20.36;42.91
9893;BME280;4985;49.092;8.542;2022-07-18T03:11:29;100056.75;;;20.44;42.69
9893;BME280;4985;49.092;8.542;2022-07-18T03:13:56;100053.66;;;20.54;42.37
9893;BME280;4985;49.092;8.542;2022-07-18T03:16:22;100047.09;;;20.43;42.38
9893;BME280;4985;49.092;8.542;2022-07-18T03:18:49;100052.41;;;20.36;42.56
9893;BME280;4985;49.092;8.542;2022-07-18T03:21:17;100046.25;;;20.29;42.70
9893;BME280;4985;49.092;8.542;2022-07-18T03:23:44;100048.72;;;20.24;42.78
9893;BME280;4985;49.092;8.542;2022-07-18T03:26:10;100048.72;;;20.24;42.79
9893;BME280;4985;49.092;8.542;2022-07-18T03:28:37;100047.47;;;20.27;42.85
9893;BME280;4985;49.092;8.542;2022-07-18T03:31:04;100058.19;;;20.40;42.78
9893;BME280;4985;49.092;8.542;2022-07-18T03:33:31;100053.47;;;20.29;42.96
9893;BME280;4985;49.092;8.542;2022-07-18T03:35:57;100052.22;;;20.25;43.13
9893;BME280;4985;49.092;8.542;2022-07-18T03:38:25;100052.00;;;20.26;43.09
9893;BME280;4985;49.092;8.542;2022-07-18T03:40:52;100043.56;;;20.36;42.77
9893;BME280;4985;49.092;8.542;2022-07-18T03:43:18;100048.72;;;20.24;42.89
9893;BME280;4985;49.092;8.542;2022-07-18T03:45:46;100047.09;;;20.17;42.95
9893;BME280;4985;49.092;8.542;2022-07-18T03:48:13;100052.62;;;20.15;43.10
9893;BME280;4985;49.092;8.542;2022-07-18T03:50:40;100047.50;;;20.07;43.19
9893;BME280;4985;49.092;8.542;2022-07-18T03:53:07;100049.56;;;20.18;43.04
9893;BME280;4985;49.092;8.542;2022-07-18T03:55:35;100054.69;;;20.13;42.95
9893;BME280;4985;49.092;8.542;2022-07-18T03:58:01;100050.59;;;20.04;43.20
9893;BME280;4985;49.092;8.542;2022-07-18T04:00:28;100045.44;;;20.02;43.21
9893;BME280;4985;49.092;8.542;2022-07-18T04:02:55;100045.25;;;19.97;43.26
9893;BME280;4985;49.092;8.542;2022-07-18T04:05:21;100045.84;;;19.93;43.37
9893;BME280;4985;49.092;8.542;2022-07-18T04:07:48;100040.09;;;19.89;43.53
9893;BME280;4985;49.092;8.542;2022-07-18T04:10:15;100043.19;;;19.93;43.55
9893;BME280;4985;49.092;8.542;2022-07-18T04:12:46;100044.22;;;19.92;43.59
9893;BME280;4985;49.092;8.542;2022-07-18T04:15:13;100041.97;;;19.89;43.68
9893;BME280;4985;49.092;8.542;2022-07-18T04:17:40;100042.59;;;19.97;43.56
9893;BME280;4985;49.092;8.542;2022-07-18T04:20:08;100059.03;;;20.01;43.33
9893;BME280;4985;49.092;8.542;2022-07-18T04:22:44;100058.41;;;19.99;43.32
9893;BME280;4985;49.092;8.542;2022-07-18T04:25:11;100056.75;;;19.91;43.46
9893;BME280;4985;49.092;8.542;2022-07-18T04:27:37;100055.09;;;19.90;43.48
9893;BME280;4985;49.092;8.542;2022-07-18T04:30:07;100060.66;;;19.89;43.53
9893;BME280;4985;49.092;8.542;2022-07-18T04:32:34;100057.78;;;19.84;43.82
9893;BME280;4985;49.092;8.542;2022-07-18T04:35:00;100055.72;;;19.86;43.94
9893;BME280;4985;49.092;8.542;2022-07-18T04:37:29;100052.03;;;19.87;43.94
9893;BME280;4985;49.092;8.542;2022-07-18T04:39:56;100061.06;;;19.99;43.82
9893;BME280;4985;49.092;8.542;2022-07-18T04:42:23;100055.75;;;20.05;43.77
9893;BME280;4985;49.092;8.542;2022-07-18T04:44:50;100046.06;;;20.11;43.58
9893;BME280;4985;49.092;8.542;2022-07-18T04:47:18;100049.97;;;20.15;43.48
9893;BME280;4985;49.092;8.542;2022-07-18T04:49:45;100045.25;;;20.17;43.48
9893;BME280;4985;49.092;8.542;2022-07-18T04:52:11;100048.31;;;20.21;43.41
9893;BME280;4985;49.092;8.542;2022-07-18T04:54:38;100041.72;;;20.23;43.36
9893;BME280;4985;49.092;8.542;2022-07-18T04:57:04;100050.37;;;20.25;43.31
9893;BME280;4985;49.092;8.542;2022-07-18T04:59:31;100048.13;;;20.29;43.28
9893;BME280;4985;49.092;8.542;2022-07-18T05:01:58;100044.41;;;20.30;43.26
9893;BME280;4985;49.092;8.542;2022-07-18T05:04:26;100048.50;;;20.32;43.20
9893;BME280;4985;49.092;8.542;2022-07-18T05:06:53;100049.12;;;20.34;43.18
9893;BME280;4985;49.092;8.542;2022-07-18T05:09:19;100054.25;;;20.36;43.15
9893;BME280;4985;49.092;8.542;2022-07-18T05:11:46;100048.69;;;20.37;43.14
9893;BME280;4985;49.092;8.542;2022-07-18T05:14:13;100044.00;;;20.40;43.10
9893;BME280;4985;49.092;8.542;2022-07-18T05:16:39;100054.47;;;20.41;43.09
9893;BME280;4985;49.092;8.542;2022-07-18T05:19:06;100048.13;;;20.42;43.06
9893;BME280;4985;49.092;8.542;2022-07-18T05:21:34;100042.56;;;20.44;43.07
9893;BME280;4985;49.092;8.542;2022-07-18T05:24:01;100041.53;;;20.45;43.07
9893;BME280;4985;49.092;8.542;2022-07-18T05:26:27;100044.81;;;20.47;43.03
9893;BME280;4985;49.092;8.542;2022-07-18T05:28:54;100043.78;;;20.48;43.02
9893;BME280;4985;49.092;8.542;2022-07-18T05:31:21;100048.91;;;20.49;43.01
9893;BME280;4985;49.092;8.542;2022-07-18T05:33:47;100046.87;;;20.51;43.00
9893;BME280;4985;49.092;8.542;2022-07-18T05:36:14;100045.84;;;20.52;43.02
9893;BME280;4985;49.092;8.542;2022-07-18T05:38:42;100046.66;;;20.53;43.01
9893;BME280;4985;49.092;8.542;2022-07-18T05:41:08;100049.94;;;20.55;43.01
9893;BME280;4985;49.092;8.542;2022-07-18T05:43:35;100053.44;;;20.55;42.98
9893;BME280;4985;49.092;8.542;2022-07-18T05:46:02;100051.38;;;20.57;42.97
9893;BME280;4985;49.092;8.542;2022-07-18T05:48:29;100041.50;;;20.58;42.98
9893;BME280;4985;49.092;8.542;2022-07-18T05:50:55;100043.13;;;20.59;42.97
9893;BME280;4985;49.092;8.542;2022-07-18T05:53:22;100042.91;;;20.60;42.97
9893;BME280;4985;49.092;8.542;2022-07-18T05:55:50;100047.06;;;20.63;42.97
9893;BME280;4985;49.092;8.542;2022-07-18T05:58:17;100042.53;;;20.63;42.97
9893;BME280;4985;49.092;8.542;2022-07-18T06:00:43;100044.16;;;20.64;42.96
9893;BME280;4985;49.092;8.542;2022-07-18T06:03:10;100049.31;;;20.66;42.96
9893;BME280;4985;49.092;8.542;2022-07-18T06:05:37;100057.94;;;20.68;42.96
9893;BME280;4985;49.092;8.542;2022-07-18T06:08:05;100047.22;;;20.68;42.94
9893;BME280;4985;49.092;8.542;2022-07-18T06:10:31;100048.06;;;20.69;42.95
9893;BME280;4985;49.092;8.542;2022-07-18T06:12:59;100044.34;;;20.70;42.93
9893;BME280;4985;49.092;8.542;2022-07-18T06:15:26;100050.28;;;20.72;42.93
9893;BME280;4985;49.092;8.542;2022-07-18T06:17:52;100056.47;;;20.72;42.89
9893;BME280;4985;49.092;8.542;2022-07-18T06:20:19;100045.59;;;20.74;42.89
9893;BME280;4985;49.092;8.542;2022-07-18T06:22:46;100050.72;;;20.75;42.89
9893;BME280;4985;49.092;8.542;2022-07-18T06:25:13;100052.38;;;20.76;42.83
9893;BME280;4985;49.092;8.542;2022-07-18T06:27:40;100047.00;;;20.76;42.86
9893;BME280;4985;49.092;8.542;2022-07-18T06:30:08;100045.75;;;20.79;42.81
9893;BME280;4985;49.092;8.542;2022-07-18T06:32:35;100042.25;;;20.78;42.81
9893;BME280;4985;49.092;8.542;2022-07-18T06:35:02;100035.88;;;20.79;42.81
9893;BME280;4985;49.092;8.542;2022-07-18T06:37:29;100036.69;;;20.80;42.80
9893;BME280;4985;49.092;8.542;2022-07-18T06:39:55;100032.16;;;20.80;42.83
9893;BME280;4985;49.092;8.542;2022-07-18T06:42:22;100031.94;;;20.82;42.80
9893;BME280;4985;49.092;8.542;2022-07-18T06:44:49;100030.09;;;20.82;42.81
9893;BME280;4985;49.092;8.542;2022-07-18T06:47:17;100038.75;;;20.84;42.80
9893;BME280;4985;49.092;8.542;2022-07-18T06:49:43;100034.22;;;20.85;42.78
9893;BME280;4985;49.092;8.542;2022-07-18T06:52:10;100029.69;;;20.85;42.80
9893;BME280;4985;49.092;8.542;2022-07-18T06:54:37;100031.53;;;20.85;42.78
9893;BME280;4985;49.092;8.542;2022-07-18T06:57:05;100031.34;;;20.86;42.77
9893;BME280;4985;49.092;8.542;2022-07-18T06:59:34;100031.34;;;20.86;42.75
9893;BME280;4985;49.092;8.542;2022-07-18T07:02:01;100030.09;;;20.89;42.73
9893;BME280;4985;49.092;8.542;2022-07-18T07:04:29;100030.91;;;20.89;42.71
9893;BME280;4985;49.092;8.542;2022-07-18T07:06:56;100036.25;;;20.89;42.70
9893;BME280;4985;49.092;8.542;2022-07-18T07:09:23;100030.91;;;20.89;42.71
9893;BME280;4985;49.092;8.542;2022-07-18T07:11:49;100028.00;;;20.91;42.78
9893;BME280;4985;49.092;8.542;2022-07-18T07:14:16;100033.34;;;20.91;42.78
9893;BME280;4985;49.092;8.542;2022-07-18T07:16:42;100030.47;;;20.92;42.81
9893;BME280;4985;49.092;8.542;2022-07-18T07:19:09;100026.75;;;20.93;42.77
9893;BME280;4985;49.092;8.542;2022-07-18T07:21:37;100021.41;;;20.93;42.78
9893;BME280;4985;49.092;8.542;2022-07-18T07:24:05;100032.75;;;20.96;42.76
9893;BME280;4985;49.092;8.542;2022-07-18T07:26:33;100025.72;;;20.94;42.78
9893;BME280;4985;49.092;8.542;2022-07-18T07:28:59;100027.78;;;20.92;42.77
9893;BME280;4985;49.092;8.542;2022-07-18T07:31:26;100028.00;;;20.98;42.74
9893;BME280;4985;49.092;8.542;2022-07-18T07:33:53;100027.16;;;20.97;42.72
9893;BME280;4985;49.092;8.542;2022-07-18T07:36:19;100026.75;;;21.00;42.73
9893;BME280;4985;49.092;8.542;2022-07-18T07:38:49;100026.75;;;21.00;42.73
9893;BME280;4985;49.092;8.542;2022-07-18T07:41:15;100027.56;;;21.01;42.70
9893;BME280;4985;49.092;8.542;2022-07-18T07:43:42;100030.03;;;21.02;42.70
9893;BME280;4985;49.092;8.542;2022-07-18T07:46:08;100031.06;;;21.01;42.68
9893;BME280;4985;49.092;8.542;2022-07-18T07:48:37;100019.09;;;21.04;42.66
9893;BME280;4985;49.092;8.542;2022-07-18T07:51:03;100021.78;;;21.04;42.61
9893;BME280;4985;49.092;8.542;2022-07-18T07:53:30;100015.38;;;21.05;42.61
9893;BME280;4985;49.092;8.542;2022-07-18T07:55:58;100019.69;;;21.06;42.59
9893;BME280;4985;49.092;8.542;2022-07-18T07:58:25;100023.00;;;21.08;42.61
9893;BME280;4985;49.092;8.542;2022-07-18T08:00:51;100016.78;;;21.14;42.56
9893;BME280;4985;49.092;8.542;2022-07-18T08:03:18;100022.12;;;21.14;42.54
9893;BME280;4985;49.092;8.542;2022-07-18T08:05:46;100020.50;;;21.13;42.51
9893;BME280;4985;49.092;8.542;2022-07-18T08:08:14;100024.22;;;21.12;42.51
9893;BME280;4985;49.092;8.542;2022-07-18T08:10:40;100016.19;;;21.12;42.50
9893;BME280;4985;49.092;8.542;2022-07-18T08:13:09;100023.37;;;21.11;42.52
9893;BME280;4985;49.092;8.542;2022-07-18T08:15:36;100015.12;;;21.13;42.46
9893;BME280;4985;49.092;8.542;2022-07-18T08:18:03;100015.97;;;21.13;42.42
9893;BME280;4985;49.092;8.542;2022-07-18T08:20:30;100013.28;;;21.13;42.42
9893;BME280;4985;49.092;8.542;2022-07-18T08:23:00;100020.28;;;21.14;42.41
9893;BME280;4985;49.092;8.542;2022-07-18T08:25:28;100007.72;;;21.15;42.38
9893;BME280;4985;49.092;8.542;2022-07-18T08:27:55;100008.53;;;21.15;42.36
9893;BME280;4985;49.092;8.542;2022-07-18T08:30:23;100008.31;;;21.17;42.33
9893;BME280;4985;49.092;8.542;2022-07-18T08:32:50;100001.94;;;21.18;42.28
9893;BME280;4985;49.092;8.542;2022-07-18T08:35:17;100003.59;;;21.19;42.23
9893;BME280;4985;49.092;8.542;2022-07-18T08:37:44;100009.75;;;21.19;42.20
9893;BME280;4985;49.092;8.542;2022-07-18T08:40:11;100006.06;;;21.20;42.17
9893;BME280;4985;49.092;8.542;2022-07-18T08:42:38;100000.69;;;21.20;42.16
9893;BME280;4985;49.092;8.542;2022-07-18T08:45:05;100005.81;;;21.22;42.13
9893;BME280;4985;49.092;8.542;2022-07-18T08:47:34;99996.75;;;21.23;42.06
9893;BME280;4985;49.092;8.542;2022-07-18T08:50:01;99994.69;;;21.25;42.05
9893;BME280;4985;49.092;8.542;2022-07-18T08:52:29;99998.22;;;21.26;42.00
9893;BME280;4985;49.092;8.542;2022-07-18T08:54:55;100005.19;;;21.27;41.97
9893;BME280;4985;49.092;8.542;2022-07-18T08:57:22;99995.31;;;21.27;41.94
9893;BME280;4985;49.092;8.542;2022-07-18T08:59:49;100001.25;;;21.29;41.88
9893;BME280;4985;49.092;8.542;2022-07-18T09:02:16;100002.94;;;21.30;41.82
9893;BME280;4985;49.092;8.542;2022-07-18T09:04:44;100003.53;;;21.32;41.80
9893;BME280;4985;49.092;8.542;2022-07-18T09:07:24;100000.84;;;21.32;41.78
9893;BME280;4985;49.092;8.542;2022-07-18T09:09:55;100004.34;;;21.33;41.76
9893;BME280;4985;49.092;8.542;2022-07-18T09:12:23;99998.78;;;21.34;41.68
9893;BME280;4985;49.092;8.542;2022-07-18T09:14:49;99990.56;;;21.29;41.67
9893;BME280;4985;49.092;8.542;2022-07-18T09:17:17;100001.84;;;21.38;41.65
9893;BME280;4985;49.092;8.542;2022-07-18T09:19:58;99992.38;;;21.35;41.57
9893;BME280;4985;49.092;8.542;2022-07-18T09:22:26;99998.94;;;21.39;41.57
9893;BME280;4985;49.092;8.542;2022-07-18T09:24:56;99995.22;;;21.40;41.62
9893;BME280;4985;49.092;8.542;2022-07-18T09:27:25;99994.03;;;21.36;41.61
9893;BME280;4985;49.092;8.542;2022-07-18T09:30:10;99988.84;;;21.41;41.55
9893;BME280;4985;49.092;8.542;2022-07-18T09:32:38;99985.97;;;21.43;41.56
9893;BME280;4985;49.092;8.542;2022-07-18T09:35:08;99991.09;;;21.44;41.56
9893;BME280;4985;49.092;8.542;2022-07-18T09:37:36;99991.91;;;21.45;41.52
9893;BME280;4985;49.092;8.542;2022-07-18T09:40:21;99989.00;;;21.46;41.53
9893;BME280;4985;49.092;8.542;2022-07-18T09:42:49;99989.59;;;21.48;41.56
9893;BME280;4985;49.092;8.542;2022-07-18T09:45:22;99981.34;;;21.50;41.55
9893;BME280;4985;49.092;8.542;2022-07-18T09:47:50;99984.84;;;21.50;41.54
9893;BME280;4985;49.092;8.542;2022-07-18T09:50:24;99978.44;;;21.51;41.54
9893;BME280;4985;49.092;8.542;2022-07-18T09:53:03;99977.44;;;21.53;41.52
9893;BME280;4985;49.092;8.542;2022-07-18T09:55:29;99979.91;;;21.54;41.50
9893;BME280;4985;49.092;8.542;2022-07-18T09:57:58;99978.03;;;21.55;41.47
9893;BME280;4985;49.092;8.542;2022-07-18T10:00:28;99988.53;;;21.56;41.48
9893;BME280;4985;49.092;8.542;2022-07-18T10:02:56;99978.19;;;21.60;41.44
9893;BME280;4985;49.092;8.542;2022-07-18T10:05:27;99975.50;;;21.60;41.37
9893;BME280;4985;49.092;8.542;2022-07-18T10:07:53;99981.69;;;21.60;41.33
9893;BME280;4985;49.092;8.542;2022-07-18T10:10:21;99976.34;;;21.60;41.37
9893;BME280;4985;49.092;8.542;2022-07-18T10:12:51;99969.94;;;21.61;41.34
9893;BME280;4985;49.092;8.542;2022-07-18T10:15:20;99961.91;;;21.61;41.33
9893;BME280;4985;49.092;8.542;2022-07-18T10:17:47;99964.97;;;21.65;41.33
9893;BME280;4985;49.092;8.542;2022-07-18T10:20:14;99969.28;;;21.66;41.27
9893;BME280;4985;49.092;8.542;2022-07-18T10:22:42;99967.44;;;21.66;41.27
9893;BME280;4985;49.092;8.542;2022-07-18T10:25:10;99964.97;;;21.65;41.28
9893;BME280;4985;49.092;8.542;2022-07-18T10:27:51;99966.16;;;21.69;41.25
9893;BME280;4985;49.092;8.542;2022-07-18T10:30:30;99967.81;;;21.70;41.24
9893;BME280;4985;49.092;8.542;2022-07-18T10:32:57;99958.72;;;21.71;41.26
9893;BME280;4985;49.092;8.542;2022-07-18T10:38:24;99962.00;;;21.73;41.24
9893;BME280;4985;49.092;8.542;2022-07-18T10:41:02;99958.28;;;21.74;41.22
9893;BME280;4985;49.092;8.542;2022-07-18T10:43:39;99956.41;;;21.74;41.23
9893;BME280;4985;49.092;8.542;2022-07-18T10:46:08;99953.53;;;21.76;41.23
9893;BME280;4985;49.092;8.542;2022-07-18T10:48:55;99949.81;;;21.77;41.22
9893;BME280;4985;49.092;8.542;2022-07-18T10:51:33;99951.47;;;21.78;41.16
9893;BME280;4985;49.092;8.542;2022-07-18T10:54:11;99943.44;;;21.78;41.20
9893;BME280;4985;49.092;8.542;2022-07-18T10:57:06;99945.06;;;21.79;41.13
9893;BME280;4985;49.092;8.542;2022-07-18T10:59:37;99944.84;;;21.80;41.14
9893;BME280;4985;49.092;8.542;2022-07-18T11:02:06;99941.94;;;21.82;41.14
9893;BME280;4985;49.092;8.542;2022-07-18T11:04:36;99940.87;;;21.83;41.10
9893;BME280;4985;49.092;8.542;2022-07-18T11:07:06;99944.16;;;21.85;41.06
9893;BME280;4985;49.092;8.542;2022-07-18T11:09:39;99935.13;;;21.86;41.05
9893;BME280;4985;49.092;8.542;2022-07-18T11:12:24;99925.22;;;21.87;41.01
9893;BME280;4985;49.092;8.542;2022-07-18T11:15:02;99927.66;;;21.88;40.97
9893;BME280;4985;49.092;8.542;2022-07-18T11:17:58;99929.75;;;21.86;40.97
9893;BME280;4985;49.092;8.542;2022-07-18T11:23:17;99925.34;;;21.92;40.96
9893;BME280;4985;49.092;8.542;2022-07-18T11:25:46;99924.53;;;21.91;40.97
9893;BME280;4985;49.092;8.542;2022-07-18T11:28:13;99925.94;;;21.94;40.95
9893;BME280;4985;49.092;8.542;2022-07-18T11:30:40;99917.69;;;21.95;40.93
9893;BME280;4985;49.092;8.542;2022-07-18T11:33:20;99910.69;;;21.94;40.90
9893;BME280;4985;49.092;8.542;2022-07-18T11:35:48;99924.47;;;21.98;40.88
9893;BME280;4985;49.092;8.542;2022-07-18T11:38:15;99921.78;;;21.98;40.87
9893;BME280;4985;49.092;8.542;2022-07-18T11:40:50;99918.88;;;21.99;40.86
9893;BME280;4985;49.092;8.542;2022-07-18T11:43:22;99916.44;;;21.98;40.83
9893;BME280;4985;49.092;8.542;2022-07-18T11:45:58;99916.81;;;22.01;40.81
9893;BME280;4985;49.092;8.542;2022-07-18T11:48:25;99912.03;;;22.03;40.80
9893;BME280;4985;49.092;8.542;2022-07-18T11:50:52;99910.16;;;22.04;40.76
9893;BME280;4985;49.092;8.542;2022-07-18T11:53:19;99901.06;;;22.05;40.73
9893;BME280;4985;49.092;8.542;2022-07-18T11:55:45;99900.06;;;22.06;40.68
9893;BME280;4985;49.092;8.542;2022-07-18T11:58:16;99897.59;;;22.04;40.63
9893;BME280;4985;49.092;8.542;2022-07-18T12:00:44;99895.28;;;22.08;40.58
9893;BME280;4985;49.092;8.542;2022-07-18T12:03:13;99892.63;;;22.08;40.55
9893;BME280;4985;49.092;8.542;2022-07-18T12:05:41;99888.91;;;22.09;40.51
9893;BME280;4985;49.092;8.542;2022-07-18T12:08:27;99888.69;;;22.11;40.50
9893;BME280;4985;49.092;8.542;2022-07-18T12:11:08;99887.66;;;22.12;40.50
9893;BME280;4985;49.092;8.542;2022-07-18T12:13:46;99891.97;;;22.13;40.50
9893;BME280;4985;49.092;8.542;2022-07-18T12:16:34;99884.50;;;22.15;40.45
9893;BME280;4985;49.092;8.542;2022-07-18T12:19:03;99876.22;;;22.16;40.38
9893;BME280;4985;49.092;8.542;2022-07-18T12:21:47;99881.38;;;22.18;40.34
9893;BME280;4985;49.092;8.542;2022-07-18T12:24:33;99880.31;;;22.19;40.32
9893;BME280;4985;49.092;8.542;2022-07-18T12:27:11;99878.25;;;22.21;40.28
9893;BME280;4985;49.092;8.542;2022-07-18T12:30:06;99870.81;;;22.23;40.26
9893;BME280;4985;49.092;8.542;2022-07-18T12:32:45;99872.44;;;22.24;40.24
9893;BME280;4985;49.092;8.542;2022-07-18T12:35:15;99867.06;;;22.24;40.22
9893;BME280;4985;49.092;8.542;2022-07-18T12:37:51;99862.53;;;22.24;40.23
9893;BME280;4985;49.092;8.542;2022-07-18T12:40:18;99865.81;;;22.26;40.22
9893;BME280;4985;49.092;8.542;2022-07-18T12:42:44;99858.56;;;22.27;40.20
9893;BME280;4985;49.092;8.542;2022-07-18T12:45:13;99860.78;;;22.30;40.20
9893;BME280;4985;49.092;8.542;2022-07-18T12:47:41;99858.72;;;22.32;40.16
9893;BME280;4985;49.092;8.542;2022-07-18T12:50:08;99856.87;;;22.32;40.14
9893;BME280;4985;49.092;8.542;2022-07-18T12:52:35;99862.81;;;22.34;40.13
9893;BME280;4985;49.092;8.542;2022-07-18T12:55:02;99854.53;;;22.36;40.11
9893;BME280;4985;49.092;8.542;2022-07-18T12:57:28;99866.91;;;22.37;40.12
9893;BME280;4985;49.092;8.542;2022-07-18T12:59:55;99857.00;;;22.37;40.09
9893;BME280;4985;49.092;8.542;2022-07-18T13:02:23;99854.91;;;22.40;40.09
9893;BME280;4985;49.092;8.542;2022-07-18T13:04:50;99852.81;;;22.42;40.06
9893;BME280;4985;49.092;8.542;2022-07-18T13:07:16;99856.31;;;22.42;40.06
9893;BME280;4985;49.092;8.542;2022-07-18T13:09:43;99854.25;;;22.44;40.03
9893;BME280;4985;49.092;8.542;2022-07-18T13:12:09;99848.87;;;22.44;39.99
9893;BME280;4985;49.092;8.542;2022-07-18T13:14:36;99846.78;;;22.46;39.98
9893;BME280;4985;49.092;8.542;2022-07-18T13:17:03;99846.78;;;22.46;39.94
9893;BME280;4985;49.092;8.542;2022-07-18T13:19:31;99837.44;;;22.49;39.91
9893;BME280;4985;49.092;8.542;2022-07-18T13:21:58;99839.91;;;22.50;39.87
9893;BME280;4985;49.092;8.542;2022-07-18T13:24:25;99839.91;;;22.50;39.84
9893;BME280;4985;49.092;8.542;2022-07-18T13:26:52;99837.00;;;22.52;39.78
9893;BME280;4985;49.092;8.542;2022-07-18T13:29:19;99845.66;;;22.54;39.73